Time;durP1;ratioP1;P1;durP2;ratioP2;P2;SDS_P1;SDS_P2;PMS_P1;PMS_P2;Temp;Humidity;BMP_temperature;BMP_pressure;BME280_temperature;BME280_humidity;BME280_pressure;Samples;Min_cycle;Max_cycle;Signal;HPM_P1;HPM_P2
2023/06/01 00:00:01;;;;;;;7.75;3.00;;;12.50;99.90;;;;;;4994486;28;20099;-69
2023/06/01 00:02:29;;;;;;;5.90;2.50;;;12.40;99.90;;;;;;5002589;28;20042;-69
2023/06/01 00:04:55;;;;;;;7.43;2.70;;;12.40;99.90;;;;;;4990069;28;20144;-68
2023/06/01 00:07:23;;;;;;;8.65;2.38;;;12.40;99.90;;;;;;4985807;28;20105;-69
2023/06/01 00:09:49;;;;;;;8.40;2.53;;;12.40;99.90;;;;;;4984295;28;20224;-69
2023/06/01 00:12:15;;;;;;;9.03;3.33;;;12.40;99.90;;;;;;4987658;28;20597;-69
2023/06/01 00:14:41;;;;;;;8.45;3.13;;;12.30;99.90;;;;;;4984434;28;20292;-70
2023/06/01 00:17:07;;;;;;;9.30;2.65;;;12.40;99.90;;;;;;4996065;28;20061;-69
2023/06/01 00:19:34;;;;;;;4.95;2.65;;;12.40;99.90;;;;;;4980076;28;20058;-69
2023/06/01 00:22:00;;;;;;;6.90;3.83;;;12.40;99.90;;;;;;4998571;28;20386;-69
2023/06/01 00:24:28;;;;;;;7.20;3.53;;;12.40;99.90;;;;;;4996368;28;20066;-68
2023/06/01 00:26:57;;;;;;;9.60;3.85;;;12.40;99.90;;;;;;4979317;28;20418;-69
2023/06/01 00:29:23;;;;;;;10.20;3.80;;;12.30;99.90;;;;;;4997275;28;20042;-69
2023/06/01 00:31:48;;;;;;;6.60;3.13;;;12.30;99.90;;;;;;4980627;28;20299;-69
2023/06/01 00:34:14;;;;;;;10.63;2.97;;;12.30;99.90;;;;;;4979173;28;20042;-70
2023/06/01 00:36:43;;;;;;;12.95;3.53;;;12.30;99.90;;;;;;4962673;28;20117;-69
2023/06/01 00:39:09;;;;;;;6.97;3.50;;;12.20;99.90;;;;;;4985056;28;20050;-70
2023/06/01 00:41:35;;;;;;;8.57;3.15;;;12.20;99.90;;;;;;4978695;28;20042;-69
2023/06/01 00:44:01;;;;;;;10.63;3.57;;;12.20;99.90;;;;;;4996057;28;20109;-69
2023/06/01 00:46:29;;;;;;;8.07;2.78;;;12.20;99.90;;;;;;4976891;28;20320;-69
2023/06/01 00:48:55;;;;;;;7.30;3.25;;;12.20;99.90;;;;;;4983509;28;20176;-69
2023/06/01 00:51:21;;;;;;;10.95;3.78;;;12.20;99.90;;;;;;4981358;28;20068;-69
2023/06/01 00:53:47;;;;;;;8.38;3.17;;;12.20;99.90;;;;;;4980003;28;20034;-69
2023/06/01 00:56:13;;;;;;;5.60;2.72;;;12.20;99.90;;;;;;4995371;28;20162;-69
2023/06/01 00:58:40;;;;;;;8.35;2.97;;;12.20;99.90;;;;;;4999809;22;20480;-69
2023/06/01 01:01:07;;;;;;;5.95;2.50;;;12.10;99.90;;;;;;4981535;28;20038;-69
2023/06/01 01:03:34;;;;;;;6.57;2.40;;;12.10;99.90;;;;;;4985173;28;20034;-69
2023/06/01 01:06:32;;;;;;;9.38;3.20;;;12.00;99.90;;;;;;4988338;28;20038;-69
2023/06/01 01:09:22;;;;;;;9.93;2.95;;;12.10;99.90;;;;;;4982817;28;20081;-69
2023/06/01 01:11:59;;;;;;;7.10;3.28;;;12.10;99.90;;;;;;4988161;28;20051;-69
2023/06/01 01:14:43;;;;;;;5.28;2.47;;;12.10;99.90;;;;;;4985793;28;20116;-69
2023/06/01 01:17:44;;;;;;;6.00;2.75;;;12.10;99.90;;;;;;4979275;28;20056;-69
2023/06/01 01:20:15;;;;;;;7.65;3.05;;;12.10;99.90;;;;;;4995760;28;20053;-70
2023/06/01 01:22:53;;;;;;;12.30;2.75;;;12.00;99.90;;;;;;4980683;28;20113;-70
2023/06/01 01:26:07;;;;;;;12.35;2.47;;;12.00;99.90;;;;;;4987274;28;20066;-69
2023/06/01 01:28:37;;;;;;;7.68;2.95;;;12.10;99.90;;;;;;4968999;28;20053;-69
2023/06/01 01:31:09;;;;;;;9.25;3.38;;;12.10;99.90;;;;;;4982587;28;20046;-69
2023/06/01 01:33:39;;;;;;;4.90;2.72;;;12.10;99.90;;;;;;4985943;28;20042;-69
2023/06/01 01:36:08;;;;;;;8.05;3.70;;;12.10;99.90;;;;;;4987564;28;20049;-69
2023/06/01 01:38:35;;;;;;;8.52;4.20;;;12.10;99.90;;;;;;4986654;28;20114;-69
2023/06/01 01:41:01;;;;;;;9.70;3.20;;;12.00;99.90;;;;;;4981929;28;20042;-69
2023/06/01 01:43:27;;;;;;;11.00;3.75;;;12.00;99.90;;;;;;4979139;28;20504;-69
2023/06/01 01:46:36;;;;;;;8.23;3.53;;;12.10;99.90;;;;;;4990171;28;20105;-70
2023/06/01 01:49:23;;;;;;;7.43;3.08;;;12.10;99.90;;;;;;4926257;29;20266;-69
2023/06/01 01:52:25;;;;;;;13.10;3.53;;;12.10;99.90;;;;;;4994136;28;20042;-69
2023/06/01 01:54:52;;;;;;;11.10;3.33;;;12.10;99.90;;;;;;4984165;28;20602;-69
2023/06/01 01:57:19;;;;;;;16.73;3.28;;;12.00;99.90;;;;;;4985518;28;20046;-69
2023/06/01 01:59:49;;;;;;;6.78;3.30;;;12.10;99.90;;;;;;4990680;28;20106;-69
2023/06/01 02:02:15;;;;;;;12.00;3.47;;;12.10;99.90;;;;;;4985813;28;20078;-69
2023/06/01 02:04:47;;;;;;;7.20;3.35;;;12.10;99.90;;;;;;4988245;28;20357;-69
2023/06/01 02:07:16;;;;;;;10.55;3.50;;;12.00;99.90;;;;;;4986657;28;20430;-69
2023/06/01 02:09:41;;;;;;;11.05;4.10;;;12.10;99.90;;;;;;4985602;28;20713;-69
2023/06/01 02:12:10;;;;;;;8.45;3.03;;;12.10;99.90;;;;;;4984876;28;20319;-69
2023/06/01 02:14:36;;;;;;;6.63;2.97;;;12.10;99.90;;;;;;4982369;28;20042;-69
2023/06/01 02:17:02;;;;;;;10.10;3.10;;;12.10;99.90;;;;;;4982524;28;20053;-69
2023/06/01 02:19:28;;;;;;;6.75;3.53;;;12.00;99.90;;;;;;5002658;28;20287;-69
2023/06/01 02:21:54;;;;;;;9.20;2.92;;;12.00;99.90;;;;;;4986419;28;20065;-69
2023/06/01 02:24:20;;;;;;;8.40;3.20;;;12.10;99.90;;;;;;4988923;28;20044;-69
2023/06/01 02:26:48;;;;;;;6.35;2.92;;;12.10;99.90;;;;;;4986779;28;20320;-69
2023/06/01 02:29:14;;;;;;;11.15;3.22;;;12.10;99.90;;;;;;4986865;28;20544;-69
2023/06/01 02:31:40;;;;;;;13.95;3.38;;;12.00;99.90;;;;;;4990472;28;20038;-69
2023/06/01 02:34:06;;;;;;;4.03;2.67;;;12.00;99.90;;;;;;4986666;28;20049;-69
2023/06/01 02:36:34;;;;;;;7.75;2.97;;;12.00;99.90;;;;;;4986866;28;20050;-69
2023/06/01 02:39:00;;;;;;;7.30;2.87;;;12.00;99.90;;;;;;4986963;28;20052;-69
2023/06/01 02:41:25;;;;;;;9.27;2.90;;;12.10;99.90;;;;;;4984676;28;20468;-69
2023/06/01 02:43:56;;;;;;;7.88;2.65;;;12.10;99.90;;;;;;4988122;28;20264;-69
2023/06/01 02:46:24;;;;;;;7.25;2.85;;;12.10;99.90;;;;;;4986249;28;20109;-69
2023/06/01 02:48:51;;;;;;;9.30;3.30;;;12.10;99.90;;;;;;4986130;28;20213;-69
2023/06/01 02:51:18;;;;;;;7.40;3.15;;;12.10;99.90;;;;;;4985462;28;20050;-70
2023/06/01 02:53:45;;;;;;;8.27;3.17;;;12.10;99.90;;;;;;4987885;28;20078;-69
2023/06/01 02:56:11;;;;;;;8.13;2.78;;;12.10;99.90;;;;;;4982751;28;20117;-69
2023/06/01 02:58:37;;;;;;;5.78;3.28;;;12.10;99.90;;;;;;4988173;28;20121;-70
2023/06/01 03:01:03;;;;;;;7.10;2.90;;;12.10;99.90;;;;;;4985622;28;20054;-69
2023/06/01 03:03:28;;;;;;;7.38;3.55;;;12.10;99.90;;;;;;4984801;28;20054;-69
2023/06/01 03:05:55;;;;;;;6.60;2.88;;;12.10;99.90;;;;;;4995395;28;20054;-69
2023/06/01 03:08:21;;;;;;;9.98;4.07;;;12.10;99.90;;;;;;5006346;28;20450;-69
2023/06/01 03:10:47;;;;;;;10.88;3.35;;;12.10;99.90;;;;;;4977481;28;20050;-69
2023/06/01 03:13:13;;;;;;;6.15;3.20;;;12.10;99.90;;;;;;4981179;28;20052;-69
2023/06/01 03:15:39;;;;;;;8.38;2.63;;;12.00;99.90;;;;;;4981158;28;20516;-69
2023/06/01 03:18:08;;;;;;;4.18;2.83;;;12.10;99.90;;;;;;4985963;28;20121;-69
2023/06/01 03:20:34;;;;;;;9.80;2.97;;;12.10;99.90;;;;;;4987980;28;20042;-69
2023/06/01 03:23:00;;;;;;;5.70;3.10;;;12.10;99.90;;;;;;4985670;28;20038;-69
2023/06/01 03:25:26;;;;;;;6.47;2.25;;;12.10;99.90;;;;;;4983530;28;20057;-69
2023/06/01 03:27:52;;;;;;;5.67;2.37;;;12.10;99.90;;;;;;4986257;28;20038;-69
2023/06/01 03:30:17;;;;;;;4.55;2.30;;;12.10;99.90;;;;;;4989598;28;20054;-69
2023/06/01 03:32:44;;;;;;;4.40;1.83;;;12.10;99.90;;;;;;4985789;28;20443;-70
2023/06/01 03:35:11;;;;;;;4.47;1.95;;;12.10;99.90;;;;;;4987682;28;20162;-70
2023/06/01 03:37:41;;;;;;;6.05;1.92;;;12.10;99.90;;;;;;4982457;28;20523;-69
2023/06/01 03:40:11;;;;;;;5.68;1.73;;;12.10;99.90;;;;;;4983224;28;20043;-69
2023/06/01 03:42:41;;;;;;;10.73;2.42;;;12.10;99.90;;;;;;4986521;28;20117;-69
2023/06/01 03:45:07;;;;;;;5.13;2.28;;;12.10;99.90;;;;;;4973376;28;20057;-69
2023/06/01 03:47:36;;;;;;;;;;;12.10;99.90;;;;;;4995275;28;20039;-69
2023/06/01 03:50:04;;;;;;;6.25;2.13;;;12.10;99.90;;;;;;4993705;28;20254;-69
2023/06/01 03:52:29;;;;;;;4.05;2.17;;;12.10;99.90;;;;;;4990204;28;20042;-69
2023/06/01 03:55:04;;;;;;;4.20;2.03;;;12.10;99.90;;;;;;4981457;28;20397;-69
2023/06/01 03:57:30;;;;;;;9.68;2.65;;;12.10;99.90;;;;;;4987872;28;20045;-69
2023/06/01 03:59:56;;;;;;;5.60;2.05;;;12.10;99.90;;;;;;4989009;28;20046;-70
2023/06/01 04:02:22;;;;;;;5.25;2.10;;;12.10;99.90;;;;;;4984211;28;20480;-69
2023/06/01 04:04:48;;;;;;;4.93;2.22;;;12.10;99.90;;;;;;4993982;28;20065;-69
2023/06/01 04:07:18;;;;;;;5.18;2.40;;;12.10;99.90;;;;;;4989730;28;20064;-69
2023/06/01 04:09:46;;;;;;;8.10;2.65;;;12.10;99.90;;;;;;4994053;28;20519;-69
2023/06/01 04:12:12;;;;;;;5.78;2.63;;;12.20;99.90;;;;;;4994194;28;20046;-69
2023/06/01 04:14:47;;;;;;;6.13;2.13;;;12.20;99.90;;;;;;4979383;28;20050;-69
2023/06/01 04:17:12;;;;;;;9.87;2.40;;;12.20;99.90;;;;;;5005399;28;20125;-69
2023/06/01 04:19:38;;;;;;;4.93;2.27;;;12.20;99.90;;;;;;4989148;28;20040;-69
2023/06/01 04:22:04;;;;;;;5.25;2.13;;;12.20;99.90;;;;;;4986363;28;20321;-69
2023/06/01 04:24:30;;;;;;;3.85;1.90;;;12.20;99.90;;;;;;4986493;28;20085;-69
2023/06/01 04:26:58;;;;;;;5.07;2.03;;;12.20;99.90;;;;;;4993202;28;20348;-69
2023/06/01 04:29:24;;;;;;;5.53;2.92;;;12.20;99.90;;;;;;4986695;28;20081;-69
2023/06/01 04:31:50;;;;;;;5.10;2.30;;;12.20;99.90;;;;;;4984375;28;20378;-69
2023/06/01 04:34:16;;;;;;;6.67;2.27;;;12.20;99.90;;;;;;4986034;28;20053;-69
2023/06/01 04:36:42;;;;;;;8.15;2.58;;;12.30;99.90;;;;;;4999648;28;20054;-69
2023/06/01 04:39:08;;;;;;;6.43;2.20;;;12.30;99.90;;;;;;4988476;28;20050;-69
2023/06/01 04:41:38;;;;;;;;;;;12.30;99.90;;;;;;4990209;28;20061;-69
2023/06/01 04:44:05;;;;;;;6.80;2.42;;;12.30;99.90;;;;;;4993941;28;19918;-69
2023/06/01 04:46:31;;;;;;;6.03;2.38;;;12.30;99.90;;;;;;4984221;28;20252;-69
2023/06/01 04:48:58;;;;;;;8.13;2.10;;;12.30;99.90;;;;;;4992053;28;20222;-69
2023/06/01 04:51:23;;;;;;;;;;;12.30;99.90;;;;;;4987021;28;20139;-69
2023/06/01 04:53:51;;;;;;;5.65;2.05;;;12.30;99.90;;;;;;4991970;28;20054;-69
2023/06/01 04:56:26;;;;;;;5.82;1.98;;;12.20;99.90;;;;;;4986654;28;20174;-69
2023/06/01 04:58:53;;;;;;;8.27;1.95;;;12.30;99.90;;;;;;4987818;28;20233;-69
2023/06/01 05:01:18;;;;;;;;;;;12.30;99.90;;;;;;4986034;28;20045;-69
2023/06/01 05:03:48;;;;;;;5.78;2.38;;;12.20;99.90;;;;;;4983511;28;19921;-69
2023/06/01 05:06:14;;;;;;;5.85;2.20;;;12.20;99.90;;;;;;4985331;28;20045;-70
2023/06/01 05:08:42;;;;;;;8.23;2.55;;;12.30;99.90;;;;;;4989773;28;20034;-69
2023/06/01 05:11:09;;;;;;;7.75;2.90;;;12.20;99.90;;;;;;4990711;28;20073;-69
2023/06/01 05:13:39;;;;;;;6.60;2.00;;;12.30;99.90;;;;;;4985318;28;20155;-69
2023/06/01 05:16:07;;;;;;;8.15;2.22;;;12.30;99.90;;;;;;4986047;28;20456;-69
2023/06/01 05:18:35;;;;;;;8.13;2.08;;;12.30;99.90;;;;;;4987113;28;20124;-69
2023/06/01 05:21:01;;;;;;;9.45;2.53;;;12.30;99.90;;;;;;4984896;28;20034;-69
2023/06/01 05:23:29;;;;;;;7.78;2.45;;;12.40;99.90;;;;;;5001318;28;20042;-69
2023/06/01 05:26:05;;;;;;;6.50;2.20;;;12.40;99.90;;;;;;4988839;28;20042;-70
2023/06/01 05:28:32;;;;;;;7.55;2.38;;;12.40;99.90;;;;;;4985815;28;20089;-70
2023/06/01 05:30:58;;;;;;;8.70;2.28;;;12.40;99.90;;;;;;4985118;28;20534;-70
2023/06/01 05:33:24;;;;;;;6.95;2.78;;;12.40;99.90;;;;;;4988426;28;20038;-71
2023/06/01 05:35:49;;;;;;;7.50;2.45;;;12.40;99.90;;;;;;4986580;28;20062;-72
2023/06/01 05:38:15;;;;;;;11.30;2.93;;;12.40;99.90;;;;;;4989133;28;20125;-69
2023/06/01 05:40:41;;;;;;;11.25;3.35;;;12.50;99.90;;;;;;4981554;28;20042;-69
2023/06/01 05:43:07;;;;;;;5.00;2.57;;;12.50;99.90;;;;;;4986193;28;20042;-72
2023/06/01 05:45:34;;;;;;;7.63;2.63;;;12.50;99.90;;;;;;4984620;28;20038;-73
2023/06/01 05:48:02;;;;;;;;;;;12.50;99.90;;;;;;4982767;28;20050;-71
2023/06/01 05:50:30;;;;;;;14.13;2.53;;;12.40;99.90;;;;;;4976363;28;20279;-71
2023/06/01 05:52:55;;;;;;;7.80;2.15;;;12.50;99.90;;;;;;4967101;28;20080;-74
2023/06/01 05:55:21;;;;;;;5.57;2.53;;;12.50;99.90;;;;;;4985129;28;20141;-78
2023/06/01 05:57:46;;;;;;;4.73;2.20;;;12.50;99.90;;;;;;4999113;28;20423;-75
2023/06/01 06:00:13;;;;;;;6.30;2.27;;;12.50;99.90;;;;;;4979417;28;20038;-70
2023/06/01 06:02:41;;;;;;;8.30;1.95;;;12.50;99.90;;;;;;4984837;28;20288;-69
2023/06/01 06:05:09;;;;;;;5.65;1.95;;;12.50;99.90;;;;;;4987375;28;20049;-69
2023/06/01 06:07:35;;;;;;;9.50;2.60;;;12.50;99.90;;;;;;4989870;28;20510;-74
2023/06/01 06:10:01;;;;;;;8.43;2.63;;;12.50;99.90;;;;;;4987716;28;20134;-70
2023/06/01 06:12:29;;;;;;;5.80;2.35;;;12.60;99.90;;;;;;4985867;28;20125;-71
2023/06/01 06:14:55;;;;;;;5.70;1.77;;;12.60;99.90;;;;;;4981582;28;20043;-71
2023/06/01 06:17:21;;;;;;;6.80;2.08;;;12.60;99.90;;;;;;4983388;28;20522;-74
2023/06/01 06:19:47;;;;;;;;;;;12.60;99.90;;;;;;4981148;28;20117;-68
2023/06/01 06:22:13;;;;;;;6.95;2.28;;;12.60;99.90;;;;;;4987965;28;19921;-69
2023/06/01 06:24:39;;;;;;;6.47;1.60;;;12.60;99.90;;;;;;4989443;28;20137;-69
2023/06/01 06:27:06;;;;;;;4.72;1.60;;;12.60;99.90;;;;;;5000933;28;20117;-69
2023/06/01 06:29:31;;;;;;;;;;;12.60;99.90;;;;;;4988782;28;20188;-69
2023/06/01 06:31:57;;;;;;;6.15;2.00;;;12.60;99.90;;;;;;4980671;28;20340;-68
2023/06/01 06:34:23;;;;;;;7.18;1.85;;;12.60;99.90;;;;;;4986643;28;20046;-68
2023/06/01 06:36:49;;;;;;;6.80;1.90;;;12.70;99.90;;;;;;4991013;28;20463;-68
2023/06/01 06:39:20;;;;;;;4.47;2.13;;;12.70;99.90;;;;;;4986414;28;20042;-72
2023/06/01 06:41:46;;;;;;;5.95;1.80;;;12.60;99.90;;;;;;4986897;28;20582;-70
2023/06/01 06:44:11;;;;;;;6.10;2.20;;;12.70;99.90;;;;;;4980157;28;20050;-72
2023/06/01 06:46:37;;;;;;;7.73;1.70;;;12.70;99.90;;;;;;4982058;28;20485;-69
2023/06/01 06:49:02;;;;;;;4.27;1.47;;;12.80;99.90;;;;;;4983794;28;20043;-69
2023/06/01 06:51:30;;;;;;;3.87;1.43;;;12.80;99.90;;;;;;4984217;28;20284;-69
2023/06/01 06:53:57;;;;;;;6.45;1.35;;;12.80;99.90;;;;;;4984276;28;20195;-69
2023/06/01 06:56:23;;;;;;;5.35;1.58;;;12.80;99.90;;;;;;4985668;28;20575;-69
2023/06/01 06:58:57;;;;;;;7.05;1.52;;;12.80;99.90;;;;;;4997162;22;20129;-69
2023/06/01 07:01:24;;;;;;;6.78;1.50;;;12.80;99.90;;;;;;4988075;28;20043;-68
2023/06/01 07:03:51;;;;;;;4.20;1.75;;;12.80;99.90;;;;;;4981716;28;20070;-69
2023/06/01 07:06:17;;;;;;;4.03;1.55;;;12.80;99.90;;;;;;4982029;28;20050;-68
2023/06/01 07:08:43;;;;;;;8.52;1.95;;;12.90;99.90;;;;;;4987608;28;20046;-69
2023/06/01 07:11:09;;;;;;;4.55;1.92;;;12.90;99.90;;;;;;4985394;28;20057;-68
2023/06/01 07:13:35;;;;;;;4.75;1.75;;;12.90;99.90;;;;;;4977849;28;20045;-69
2023/06/01 07:16:05;;;;;;;3.92;1.80;;;13.10;99.90;;;;;;4977459;28;20038;-69
2023/06/01 07:18:30;;;;;;;;;;;13.00;99.90;;;;;;5006879;28;20407;-69
2023/06/01 07:20:57;;;;;;;7.18;1.30;;;13.00;99.90;;;;;;4963922;28;19918;-69
2023/06/01 07:23:23;;;;;;;4.32;1.88;;;13.00;99.90;;;;;;4997126;28;20306;-69
2023/06/01 07:25:49;;;;;;;5.88;1.90;;;13.00;99.90;;;;;;4999545;28;20467;-69
2023/06/01 07:28:15;;;;;;;4.55;1.70;;;13.00;99.90;;;;;;4988128;28;20101;-69
2023/06/01 07:30:41;;;;;;;6.75;2.10;;;13.10;99.90;;;;;;4983137;28;20202;-69
2023/06/01 07:33:07;;;;;;;6.90;1.50;;;13.10;99.90;;;;;;4986891;28;20039;-68
2023/06/01 07:35:33;;;;;;;2.35;1.15;;;13.10;99.90;;;;;;4987060;28;20046;-69
2023/06/01 07:38:00;;;;;;;4.97;1.17;;;13.10;99.90;;;;;;4983802;28;20065;-69
2023/06/01 07:40:25;;;;;;;3.08;1.38;;;13.10;99.90;;;;;;4980087;28;20548;-68
2023/06/01 07:42:51;;;;;;;2.60;0.80;;;13.10;99.90;;;;;;4982881;28;20261;-69
2023/06/01 07:45:17;;;;;;;4.85;1.23;;;13.20;99.90;;;;;;4979652;28;20046;-69
2023/06/01 07:47:43;;;;;;;4.57;1.13;;;13.20;99.90;;;;;;4990397;28;20042;-69
2023/06/01 07:50:09;;;;;;;1.90;0.80;;;13.20;99.90;;;;;;4984827;28;20049;-69
2023/06/01 07:52:34;;;;;;;4.10;0.90;;;13.30;99.90;;;;;;4983886;28;20351;-69
2023/06/01 07:55:00;;;;;;;3.85;0.80;;;13.30;99.90;;;;;;4983125;28;20104;-68
2023/06/01 07:57:26;;;;;;;3.33;0.93;;;13.40;99.90;;;;;;4998722;28;20074;-69
2023/06/01 07:59:52;;;;;;;4.13;1.20;;;13.40;99.90;;;;;;4991234;28;20523;-68
2023/06/01 08:02:20;;;;;;;3.17;0.80;;;13.40;99.90;;;;;;4980934;28;20039;-69
2023/06/01 08:04:46;;;;;;;2.63;0.85;;;13.40;99.90;;;;;;4993728;28;20343;-69
2023/06/01 08:07:14;;;;;;;1.92;0.70;;;13.40;99.90;;;;;;4999792;28;20042;-69
2023/06/01 08:09:39;;;;;;;3.47;0.95;;;13.30;99.90;;;;;;4974797;28;20086;-69
2023/06/01 08:12:07;;;;;;;1.75;0.77;;;13.20;99.90;;;;;;4987854;28;20128;-69
2023/06/01 08:14:33;;;;;;;3.15;0.88;;;13.30;99.90;;;;;;4975140;28;20047;-69
2023/06/01 08:17:01;;;;;;;4.68;1.30;;;13.20;99.90;;;;;;4985262;28;20042;-69
2023/06/01 08:19:27;;;;;;;2.72;0.95;;;13.30;99.90;;;;;;4990751;28;20069;-69
2023/06/01 08:21:53;;;;;;;2.15;0.82;;;13.20;99.90;;;;;;4984883;28;20116;-71
2023/06/01 08:24:22;;;;;;;5.43;1.20;;;13.20;99.90;;;;;;4990334;28;20129;-72
2023/06/01 08:26:48;;;;;;;2.40;1.13;;;13.20;99.90;;;;;;4986318;28;20530;-69
2023/06/01 08:29:14;;;;;;;4.82;0.88;;;13.20;99.90;;;;;;4983025;28;20051;-68
2023/06/01 08:31:40;;;;;;;4.97;1.10;;;13.20;99.90;;;;;;4973597;28;20140;-68
2023/06/01 08:34:06;;;;;;;3.53;1.10;;;13.20;99.90;;;;;;4982336;28;20276;-70
2023/06/01 08:36:31;;;;;;;2.95;1.10;;;13.30;99.90;;;;;;4989959;28;20137;-71
2023/06/01 08:38:57;;;;;;;4.28;1.08;;;13.30;99.90;;;;;;4990777;28;20045;-68
2023/06/01 08:41:44;;;;;;;3.35;1.30;;;13.30;99.90;;;;;;4978187;28;20096;-67
2023/06/01 08:44:11;;;;;;;4.03;1.60;;;13.30;99.90;;;;;;4980798;28;20047;-68
2023/06/01 08:46:41;;;;;;;7.68;2.40;;;13.30;99.90;;;;;;4984061;28;20118;-72
2023/06/01 08:49:08;;;;;;;4.13;1.60;;;13.30;99.90;;;;;;4973968;28;20481;-70
2023/06/01 08:51:37;;;;;;;6.43;2.17;;;13.20;99.90;;;;;;4994189;28;20041;-70
2023/06/01 08:54:05;;;;;;;19.05;6.70;;;13.10;99.90;;;;;;4984832;28;20031;-70
2023/06/01 08:56:31;;;;;;;8.15;2.20;;;13.10;99.90;;;;;;4987453;28;20402;-69
2023/06/01 08:58:57;;;;;;;5.53;1.92;;;13.10;99.90;;;;;;4982307;28;20041;-69
2023/06/01 09:01:23;;;;;;;4.65;2.10;;;13.10;99.90;;;;;;4985033;28;20050;-69
2023/06/01 09:03:50;;;;;;;7.85;1.80;;;13.10;99.90;;;;;;4974649;28;20138;-69
2023/06/01 09:06:16;;;;;;;6.30;1.70;;;13.10;99.90;;;;;;4981744;28;20117;-68
2023/06/01 09:08:42;;;;;;;7.38;2.05;;;13.10;99.90;;;;;;4985683;28;20045;-69
2023/06/01 09:11:08;;;;;;;8.48;1.92;;;13.20;99.90;;;;;;4986219;28;20451;-71
2023/06/01 09:13:35;;;;;;;4.80;1.92;;;13.20;99.90;;;;;;4985317;28;20042;-68
2023/06/01 09:16:01;;;;;;;4.75;1.95;;;13.30;99.90;;;;;;4964219;28;20358;-69
2023/06/01 09:18:27;;;;;;;5.22;1.60;;;13.30;99.90;;;;;;4981273;28;20123;-69
2023/06/01 09:20:53;;;;;;;4.82;2.10;;;13.30;99.90;;;;;;4982747;28;20137;-69
2023/06/01 09:23:38;;;;;;;4.18;2.03;;;13.40;99.90;;;;;;4982067;28;20116;-69
2023/06/01 09:26:08;;;;;;;5.32;1.90;;;13.50;99.90;;;;;;4984211;28;20061;-69
2023/06/01 09:28:55;;;;;;;10.50;2.58;;;13.50;99.90;;;;;;4982311;28;20038;-69
2023/06/01 09:31:46;;;;;;;5.55;1.40;;;13.50;99.90;;;;;;4985467;28;20500;-69
2023/06/01 09:34:18;;;;;;;9.10;2.33;;;13.50;99.90;;;;;;4981055;28;20042;-69
2023/06/01 09:36:49;;;;;;;8.60;1.80;;;13.50;99.90;;;;;;4967649;28;20046;-69
2023/06/01 09:39:20;;;;;;;9.35;2.00;;;13.50;99.90;;;;;;4981600;28;20121;-68
2023/06/01 09:41:54;;;;;;;8.63;1.50;;;13.50;99.90;;;;;;4983106;28;20105;-69
2023/06/01 09:44:34;;;;;;;12.68;2.33;;;13.40;99.90;;;;;;4980686;28;20401;-69
2023/06/01 09:47:03;;;;;;;7.90;1.70;;;13.40;99.90;;;;;;4985303;28;20050;-68
2023/06/01 09:49:34;;;;;;;6.10;1.80;;;13.40;99.90;;;;;;4981866;28;20253;-68
2023/06/01 09:52:03;;;;;;;5.75;1.83;;;13.40;99.90;;;;;;4972830;28;20354;-68
2023/06/01 09:54:30;;;;;;;4.53;1.70;;;13.40;99.90;;;;;;4981412;28;20074;-69
2023/06/01 09:56:57;;;;;;;7.68;2.42;;;13.50;99.90;;;;;;4983772;28;20117;-68
2023/06/01 09:59:24;;;;;;;3.88;1.63;;;13.50;99.90;;;;;;4980519;28;20102;-68
2023/06/01 10:01:52;;;;;;;4.93;1.58;;;13.50;99.90;;;;;;4972498;28;20058;-69
2023/06/01 10:04:22;;;;;;;9.68;2.28;;;13.40;99.90;;;;;;4976315;28;20042;-69
2023/06/01 10:06:52;;;;;;;5.53;1.55;;;13.60;99.90;;;;;;4980352;28;20157;-68
2023/06/01 10:09:19;;;;;;;3.13;1.50;;;13.60;99.90;;;;;;4977563;28;20105;-69
2023/06/01 10:11:52;;;;;;;6.63;1.67;;;13.60;99.90;;;;;;4977417;28;20042;-69
2023/06/01 10:14:20;;;;;;;6.30;1.35;;;13.60;99.90;;;;;;4983617;28;20066;-68
2023/06/01 10:16:52;;;;;;;4.47;1.45;;;13.60;99.90;;;;;;4986705;28;20038;-69
2023/06/01 10:19:19;;;;;;;3.78;1.50;;;13.70;99.90;;;;;;4986632;28;20050;-70
2023/06/01 10:21:45;;;;;;;7.10;2.05;;;13.70;99.90;;;;;;4983343;28;20160;-68
2023/06/01 10:24:12;;;;;;;6.45;1.73;;;13.70;99.90;;;;;;4985784;28;20041;-69
2023/06/01 10:27:10;;;;;;;7.40;2.08;;;13.80;99.90;;;;;;4984614;28;20046;-69
2023/06/01 10:29:36;;;;;;;;;;;13.80;99.90;;;;;;4971133;28;20138;-68
2023/06/01 10:32:02;;;;;;;5.05;1.63;;;13.80;99.90;;;;;;4980012;28;20424;-69
2023/06/01 10:34:42;;;;;;;4.75;1.35;;;13.80;99.90;;;;;;4988450;28;20058;-69
2023/06/01 10:37:08;;;;;;;8.73;1.50;;;14.00;99.90;;;;;;4975310;28;20045;-69
2023/06/01 10:39:35;;;;;;;6.03;2.33;;;13.90;99.90;;;;;;4986461;28;20477;-69
2023/06/01 10:42:12;;;;;;;5.60;1.80;;;13.90;99.90;;;;;;4981403;28;20065;-69
2023/06/01 10:44:48;;;;;;;5.43;1.90;;;13.90;99.90;;;;;;4979061;28;20039;-69
2023/06/01 10:47:17;;;;;;;6.50;1.80;;;13.90;99.90;;;;;;4976259;28;20531;-69
2023/06/01 10:49:48;;;;;;;6.15;2.25;;;14.00;99.90;;;;;;4976396;28;20094;-70
2023/06/01 10:52:34;;;;;;;7.07;1.85;;;14.00;99.90;;;;;;4979021;28;20065;-69
2023/06/01 10:55:05;;;;;;;6.13;1.80;;;14.10;99.90;;;;;;4982335;28;20034;-69
2023/06/01 10:57:35;;;;;;;6.50;1.75;;;14.00;99.90;;;;;;4977724;28;20050;-69
2023/06/01 11:00:26;;;;;;;7.43;2.13;;;14.10;99.90;;;;;;4980537;28;20527;-69
2023/06/01 11:02:54;;;;;;;11.13;2.42;;;14.10;99.90;;;;;;4975633;28;20042;-69
2023/06/01 11:05:48;;;;;;;8.73;1.75;;;14.10;99.90;;;;;;4982798;28;20038;-69
2023/06/01 11:08:22;;;;;;;6.85;2.33;;;14.10;99.90;;;;;;4981631;28;20073;-69
2023/06/01 11:10:51;;;;;;;4.60;1.67;;;14.10;99.90;;;;;;4979197;28;20142;-69
2023/06/01 11:13:24;;;;;;;9.32;2.13;;;14.20;99.90;;;;;;4977968;28;20073;-69
2023/06/01 11:16:09;;;;;;;9.73;2.00;;;14.20;99.90;;;;;;4982060;28;20069;-69
2023/06/01 11:18:41;;;;;;;4.82;2.13;;;14.20;99.90;;;;;;4980801;28;20108;-69
2023/06/01 11:21:21;;;;;;;5.57;1.75;;;14.20;99.90;;;;;;4976445;28;20373;-69
2023/06/01 11:23:47;;;;;;;8.65;1.65;;;14.20;99.90;;;;;;4980255;28;20197;-69
2023/06/01 11:26:13;;;;;;;;;;;14.20;99.90;;;;;;4981773;28;20049;-69
2023/06/01 11:28:39;;;;;;;5.28;1.40;;;14.20;99.90;;;;;;4975695;28;19955;-69
2023/06/01 11:31:09;;;;;;;4.70;1.83;;;14.20;99.90;;;;;;4974341;28;20421;-69
2023/06/01 11:33:38;;;;;;;2.80;1.45;;;14.20;99.90;;;;;;4979733;28;20437;-69
2023/06/01 11:36:05;;;;;;;7.07;1.50;;;14.20;99.90;;;;;;4973266;28;20042;-69
2023/06/01 11:38:42;;;;;;;12.38;2.00;;;14.20;99.90;;;;;;4974130;28;20083;-69
2023/06/01 11:41:08;;;;;;;5.57;1.25;;;14.20;99.90;;;;;;4983086;28;20058;-69
2023/06/01 11:43:35;;;;;;;3.75;1.88;;;14.30;99.90;;;;;;4985896;28;20048;-69
2023/06/01 11:46:10;;;;;;;5.20;1.52;;;14.30;99.90;;;;;;4983621;28;20054;-69
2023/06/01 11:48:36;;;;;;;6.28;1.42;;;14.30;99.90;;;;;;4984932;28;20054;-69
2023/06/01 11:51:04;;;;;;;5.13;1.38;;;14.30;99.90;;;;;;4993565;28;20042;-69
2023/06/01 11:53:33;;;;;;;5.35;1.73;;;14.30;99.90;;;;;;4988091;28;20061;-69
2023/06/01 11:55:59;;;;;;;3.83;1.23;;;14.30;99.90;;;;;;4982365;28;20057;-69
2023/06/01 11:58:29;;;;;;;5.20;1.50;;;14.40;99.90;;;;;;4984004;28;20035;-69
2023/06/01 12:00:56;;;;;;;7.95;1.30;;;14.50;99.90;;;;;;4981097;28;20407;-69
2023/06/01 12:03:24;;;;;;;6.20;1.48;;;14.50;99.90;;;;;;4976166;28;20042;-69
2023/06/01 12:05:50;;;;;;;4.95;1.30;;;14.50;99.90;;;;;;4980843;28;20058;-69
2023/06/01 12:08:21;;;;;;;;;;;14.50;99.90;;;;;;4985012;28;20585;-69
2023/06/01 12:10:48;;;;;;;7.82;2.00;;;14.60;99.90;;;;;;4982196;28;19922;-69
2023/06/01 12:13:15;;;;;;;5.25;1.50;;;14.50;99.90;;;;;;4985317;28;20069;-69
2023/06/01 12:15:41;;;;;;;4.95;1.63;;;14.50;99.90;;;;;;4985579;28;20062;-69
2023/06/01 12:18:07;;;;;;;6.15;1.42;;;14.60;99.90;;;;;;4979814;28;20040;-69
2023/06/01 12:20:38;;;;;;;5.18;1.50;;;14.60;99.90;;;;;;4975734;28;20046;-70
2023/06/01 12:23:19;;;;;;;3.88;1.27;;;14.60;99.90;;;;;;4985348;28;20042;-69
2023/06/01 12:25:51;;;;;;;3.00;1.20;;;14.50;99.90;;;;;;4993160;28;20446;-69
2023/06/01 12:28:18;;;;;;;6.43;1.77;;;14.60;99.90;;;;;;4973328;28;20488;-69
2023/06/01 12:30:43;;;;;;;;;;;14.50;99.90;;;;;;4984538;28;20117;-69
2023/06/01 12:33:29;;;;;;;8.82;2.03;;;14.50;99.90;;;;;;5000330;28;19980;-69
2023/06/01 12:35:54;;;;;;;5.78;1.75;;;14.40;99.90;;;;;;4983721;28;20038;-69
2023/06/01 12:38:20;;;;;;;4.80;1.50;;;14.50;99.90;;;;;;4969976;28;20043;-69
2023/06/01 12:40:47;;;;;;;7.22;1.67;;;14.40;99.90;;;;;;4987408;28;20387;-69
2023/06/01 12:43:19;;;;;;;5.57;2.22;;;14.50;99.90;;;;;;4976065;28;20463;-69
2023/06/01 12:45:45;;;;;;;10.68;1.83;;;14.50;99.90;;;;;;4981495;28;20100;-69
2023/06/01 12:48:31;;;;;;;5.32;1.88;;;14.50;99.90;;;;;;4983962;28;20057;-69
2023/06/01 12:50:57;;;;;;;8.02;2.10;;;14.40;99.90;;;;;;4980263;28;20047;-69
2023/06/01 12:53:23;;;;;;;6.00;2.35;;;14.40;99.90;;;;;;4987642;28;20037;-69
2023/06/01 12:55:49;;;;;;;3.25;1.85;;;14.40;99.90;;;;;;4981077;28;20520;-69